Terminal Aerodrome Forecast
Issued by NWS

Home | Current Version | Previous Version | Text Only | Print | Product List | Glossary On
Versions: 1 2 3 4 5 6 7 8 9 10 11 12 13 14 15
000
FTUS41 KPHI 272336
TAFMIV
TAF
KMIV 272336Z 2800/2824 18006KT P6SM VCSH SCT050
     FM280300 18004KT P6SM SCT100
     FM280800 18004KT 4SM BR BKN010
     FM281400 22006KT P6SM SCT015 BKN150
     FM281800 23008KT P6SM SCT050=

USA.gov is the U.S. government's official web portal to all federal, state and local government web resources and services.